createdAt,value
2022-10-20T00:01:40.454Z,10.16
2022-10-20T00:04:10.182Z,10.39
2022-10-20T00:06:39.935Z,10.36
2022-10-20T00:09:10.118Z,10.39
2022-10-20T00:11:39.955Z,10.37
2022-10-20T00:14:12.943Z,10.44
2022-10-20T00:16:42.878Z,10.26
2022-10-20T00:19:12.640Z,10.29
2022-10-20T00:21:42.392Z,10.41
2022-10-20T00:24:12.140Z,10.40
2022-10-20T00:26:41.895Z,10.40
2022-10-20T00:29:14.255Z,10.50
2022-10-20T00:31:43.998Z,10.22
2022-10-20T00:34:14.039Z,9.95
2022-10-20T00:36:47.473Z,9.92
2022-10-20T00:39:20.210Z,9.68
2022-10-20T00:41:49.943Z,9.59
2022-10-20T00:44:54.125Z,9.40
2022-10-20T00:47:34.134Z,9.34
2022-10-20T00:50:08.984Z,8.97
2022-10-20T00:52:40.928Z,9.15
2022-10-20T00:55:12.936Z,9.14
2022-10-20T00:57:45.259Z,9.22
2022-10-20T01:00:19.517Z,9.29
2022-10-20T01:02:49.618Z,9.19
2022-10-20T01:05:19.624Z,9.29
2022-10-20T01:07:49.460Z,9.31
2022-10-20T01:10:20.019Z,9.14
2022-10-20T01:12:55.721Z,9.09
2022-10-20T01:15:36.997Z,9.13
2022-10-20T01:18:14.263Z,9.11
2022-10-20T01:21:19.348Z,8.74
2022-10-20T01:24:08.239Z,8.70
2022-10-20T01:27:02.577Z,8.56
2022-10-20T01:29:39.223Z,8.73
2022-10-20T01:32:19.008Z,8.88
2022-10-20T01:34:57.487Z,8.76
2022-10-20T01:37:48.441Z,8.73
2022-10-20T01:40:25.345Z,8.75
2022-10-20T01:42:58.951Z,8.76
2022-10-20T01:45:35.326Z,8.94
2022-10-20T01:48:08.446Z,9.00
2022-10-20T01:50:39.673Z,9.23
2022-10-20T01:53:09.466Z,9.28
2022-10-20T01:55:41.107Z,9.43
2022-10-20T01:58:34.768Z,9.55
2022-10-20T02:01:16.566Z,9.53
2022-10-20T02:03:54.624Z,9.62
2022-10-20T02:06:40.517Z,9.48
2022-10-20T02:09:15.885Z,9.62
2022-10-20T02:11:52.114Z,9.58
2022-10-20T02:14:24.524Z,9.56
2022-10-20T02:17:01.103Z,9.38
2022-10-20T02:19:36.274Z,9.48
2022-10-20T02:22:07.983Z,9.43
2022-10-20T02:24:40.980Z,9.65
2022-10-20T02:27:15.810Z,9.56
2022-10-20T02:29:51.217Z,9.40
2022-10-20T02:32:25.542Z,9.31
2022-10-20T02:34:55.289Z,9.49
2022-10-20T02:37:25.061Z,9.41
2022-10-20T02:39:54.833Z,9.45
2022-10-20T02:42:24.649Z,8.95
2022-10-20T02:44:55.765Z,9.30
2022-10-20T02:47:28.063Z,9.17
2022-10-20T02:49:57.797Z,9.09
2022-10-20T02:52:27.602Z,8.88
2022-10-20T02:54:57.415Z,9.14
2022-10-20T02:57:27.271Z,9.10
2022-10-20T02:59:57.441Z,9.04
2022-10-20T03:02:29.750Z,9.05
2022-10-20T03:04:59.558Z,9.03
2022-10-20T03:07:29.403Z,8.67
2022-10-20T03:09:59.227Z,8.78
2022-10-20T03:12:31.517Z,8.73
2022-10-20T03:15:02.105Z,8.74
2022-10-20T03:17:34.794Z,8.76
2022-10-20T03:20:04.939Z,8.82
2022-10-20T03:22:34.677Z,8.72
2022-10-20T03:25:04.460Z,8.62
2022-10-20T03:27:34.336Z,8.72
2022-10-20T03:30:04.378Z,8.67
2022-10-20T03:32:36.952Z,8.88
2022-10-20T03:35:07.457Z,8.79
2022-10-20T03:37:37.210Z,8.73
2022-10-20T03:40:07.987Z,8.86
2022-10-20T03:42:38.015Z,8.89
2022-10-20T03:45:09.376Z,8.97
2022-10-20T03:47:41.734Z,8.98
2022-10-20T03:50:12.456Z,9.02
2022-10-20T03:52:42.167Z,8.87
2022-10-20T03:55:12.230Z,8.92
2022-10-20T03:57:41.970Z,9.14
2022-10-20T04:00:13.047Z,9.16
2022-10-20T04:02:47.903Z,8.96
2022-10-20T04:05:20.344Z,9.09
2022-10-20T04:07:50.825Z,9.04
2022-10-20T04:10:20.724Z,8.67
2022-10-20T04:12:50.479Z,8.67
2022-10-20T04:15:20.878Z,8.58
2022-10-20T04:17:53.217Z,8.31
2022-10-20T04:20:23.316Z,8.35
2022-10-20T04:22:53.047Z,8.41
2022-10-20T04:25:22.842Z,8.44
2022-10-20T04:27:52.579Z,8.15
2022-10-20T04:30:22.325Z,8.05
2022-10-20T04:32:54.679Z,8.41
2022-10-20T04:35:24.385Z,8.48
2022-10-20T04:37:54.112Z,8.56
2022-10-20T04:40:23.879Z,8.63
2022-10-20T04:42:53.612Z,8.59
2022-10-20T04:45:23.346Z,8.46
2022-10-20T04:47:55.734Z,8.52
2022-10-20T04:50:25.501Z,8.44
2022-10-20T04:53:10.216Z,8.37
2022-10-20T04:55:39.982Z,8.24
2022-10-20T04:58:09.730Z,8.00
2022-10-20T05:00:41.687Z,8.24
2022-10-20T05:03:15.062Z,8.17
2022-10-20T05:05:44.987Z,8.24
2022-10-20T05:08:14.762Z,8.13
2022-10-20T05:10:46.308Z,8.12
2022-10-20T05:13:17.143Z,8.33
2022-10-20T05:15:48.011Z,8.24
2022-10-20T05:18:21.426Z,8.19
2022-10-20T05:21:07.977Z,8.21
2022-10-20T05:23:38.815Z,8.00
2022-10-20T05:26:11.515Z,8.08
2022-10-20T05:28:42.048Z,8.06
2022-10-20T05:31:13.402Z,8.11
2022-10-20T05:33:47.400Z,8.11
2022-10-20T05:36:21.573Z,8.06
2022-10-20T05:38:57.945Z,8.10
2022-10-20T05:41:33.333Z,8.12
2022-10-20T05:44:09.838Z,8.14
2022-10-20T05:46:42.752Z,8.02
2022-10-20T05:49:18.787Z,7.97
2022-10-20T05:51:49.711Z,8.02
2022-10-20T05:54:20.573Z,7.91
2022-10-20T05:56:52.378Z,8.09
2022-10-20T05:59:24.163Z,8.11
2022-10-20T06:01:54.970Z,8.12
2022-10-20T06:04:29.694Z,8.17
2022-10-20T06:06:59.850Z,8.16
2022-10-20T06:09:29.688Z,8.29
2022-10-20T06:11:59.502Z,8.37
2022-10-20T06:14:30.558Z,8.35
2022-10-20T06:17:00.781Z,8.55
2022-10-20T06:19:34.221Z,8.47
2022-10-20T06:22:06.792Z,8.70
2022-10-20T06:24:41.360Z,8.70
2022-10-20T06:27:11.154Z,8.81
2022-10-20T06:29:40.976Z,8.73
2022-10-20T06:35:09.863Z,8.64
2022-10-20T06:37:39.689Z,8.40
2022-10-20T06:40:10.480Z,8.12
2022-10-20T06:42:40.441Z,8.22
2022-10-20T06:45:14.361Z,8.23
2022-10-20T06:47:52.352Z,8.30
2022-10-20T06:50:25.798Z,8.17
2022-10-20T06:52:55.557Z,8.19
2022-10-20T06:55:27.383Z,8.29
2022-10-20T06:57:58.120Z,8.13
2022-10-20T07:02:59.599Z,8.27
2022-10-20T07:05:32.028Z,8.39
2022-10-20T07:08:05.272Z,8.44
2022-10-20T07:10:35.084Z,8.36
2022-10-20T07:13:04.883Z,8.46
2022-10-20T07:15:36.675Z,8.53
2022-10-20T07:18:10.242Z,8.51
2022-10-20T07:20:43.676Z,8.42
2022-10-20T07:23:13.751Z,8.61
2022-10-20T07:25:43.584Z,8.53
2022-10-20T07:28:14.428Z,8.70
2022-10-20T07:30:45.248Z,8.86
2022-10-20T07:33:15.095Z,9.00
2022-10-20T07:35:47.549Z,9.18
2022-10-20T07:38:18.427Z,9.32
2022-10-20T07:40:48.253Z,9.35
2022-10-20T07:43:18.985Z,9.22
2022-10-20T07:45:49.799Z,9.50
2022-10-20T07:48:19.557Z,9.19
2022-10-20T07:50:52.043Z,9.37
2022-10-20T07:53:21.926Z,9.46
2022-10-20T07:55:52.736Z,9.45
2022-10-20T07:58:22.508Z,9.44
2022-10-20T08:00:53.260Z,9.10
2022-10-20T08:03:24.084Z,9.14
2022-10-20T08:05:56.501Z,9.75
2022-10-20T08:08:26.351Z,9.82
2022-10-20T08:10:58.152Z,9.80
2022-10-20T08:13:29.503Z,9.98
2022-10-20T08:15:59.442Z,9.71
2022-10-20T08:18:31.532Z,10.09
2022-10-20T08:21:15.392Z,10.24
2022-10-20T08:23:46.663Z,10.31
2022-10-20T08:26:20.715Z,10.39
2022-10-20T08:28:50.578Z,10.52
2022-10-20T08:31:20.794Z,10.61
2022-10-20T08:33:53.157Z,10.72
2022-10-20T08:36:28.194Z,10.82
2022-10-20T08:39:02.106Z,10.89
2022-10-20T08:42:02.539Z,10.73
2022-10-20T08:44:31.792Z,10.73
2022-10-20T08:47:04.690Z,10.89
2022-10-20T08:49:37.888Z,10.92
2022-10-20T08:52:16.607Z,10.79
2022-10-20T08:54:48.585Z,10.93
2022-10-20T08:57:25.988Z,11.15
2022-10-20T08:59:59.198Z,11.15
2022-10-20T09:02:35.794Z,11.28
2022-10-20T09:05:09.540Z,11.28
2022-10-20T09:07:45.081Z,11.33
2022-10-20T09:10:26.986Z,11.49
2022-10-20T09:12:57.063Z,11.61
2022-10-20T09:15:29.216Z,11.44
2022-10-20T09:18:03.563Z,11.72
2022-10-20T09:20:38.839Z,11.95
2022-10-20T09:23:38.951Z,12.06
2022-10-20T09:26:25.143Z,12.32
2022-10-20T09:29:14.363Z,12.62
2022-10-20T09:31:48.047Z,12.48
2022-10-20T09:34:24.544Z,12.53
2022-10-20T09:37:05.932Z,13.01
2022-10-20T09:39:45.965Z,12.91
2022-10-20T09:42:21.777Z,13.04
2022-10-20T09:44:56.295Z,13.06
2022-10-20T09:47:29.581Z,13.28
2022-10-20T09:50:03.688Z,13.16
2022-10-20T09:52:44.603Z,13.22
2022-10-20T09:55:27.943Z,13.38
2022-10-20T09:58:01.829Z,13.43
2022-10-20T10:00:37.630Z,13.53
2022-10-20T10:03:21.360Z,13.58
2022-10-20T10:05:54.049Z,13.63
2022-10-20T10:08:27.575Z,13.59
2022-10-20T10:11:07.168Z,13.25
2022-10-20T10:13:44.747Z,13.40
2022-10-20T10:16:18.164Z,13.55
2022-10-20T10:19:00.715Z,13.44
2022-10-20T10:21:32.669Z,13.39
2022-10-20T10:24:05.016Z,13.72
2022-10-20T10:26:49.507Z,13.77
2022-10-20T10:29:26.793Z,13.73
2022-10-20T10:32:03.413Z,13.90
2022-10-20T10:35:02.532Z,14.22
2022-10-20T10:37:35.228Z,14.19
2022-10-20T10:40:17.817Z,14.38
2022-10-20T10:43:18.351Z,14.53
2022-10-20T10:45:55.480Z,14.65
2022-10-20T10:49:00.922Z,14.63
2022-10-20T10:51:46.278Z,14.60
2022-10-20T10:54:33.853Z,14.57
2022-10-20T10:57:12.748Z,14.80
2022-10-20T10:59:46.924Z,15.00
2022-10-20T11:02:42.499Z,15.19
2022-10-20T11:05:34.152Z,15.19
2022-10-20T11:08:15.609Z,15.15
2022-10-20T11:10:58.575Z,15.26
2022-10-20T11:13:38.896Z,15.57
2022-10-20T11:16:24.069Z,15.50
2022-10-20T11:19:31.921Z,15.60
2022-10-20T11:22:15.860Z,15.59
2022-10-20T11:24:52.201Z,15.46
2022-10-20T11:27:28.363Z,15.82
2022-10-20T11:30:05.274Z,15.86
2022-10-20T11:32:42.755Z,15.97
2022-10-20T11:35:24.840Z,16.03
2022-10-20T11:38:04.540Z,15.79
2022-10-20T11:40:43.201Z,15.95
2022-10-20T11:43:20.439Z,16.25
2022-10-20T11:45:55.183Z,16.32
2022-10-20T11:48:33.612Z,16.34
2022-10-20T11:51:25.433Z,16.42
2022-10-20T11:54:09.124Z,16.42
2022-10-20T11:56:56.340Z,16.59
2022-10-20T11:59:48.119Z,16.59
2022-10-20T12:02:41.299Z,16.62
2022-10-20T12:05:47.712Z,16.73
2022-10-20T12:08:40.160Z,16.82
2022-10-20T12:11:18.722Z,16.82
2022-10-20T12:14:01.025Z,16.94
2022-10-20T12:17:07.734Z,16.80
2022-10-20T12:19:39.127Z,16.91
2022-10-20T12:22:45.237Z,16.87
2022-10-20T12:25:37.825Z,16.76
2022-10-20T12:28:36.171Z,16.73
2022-10-20T12:31:08.211Z,16.91
2022-10-20T12:33:42.293Z,16.85
2022-10-20T12:36:31.665Z,16.81
2022-10-20T12:39:31.443Z,16.84
2022-10-20T12:42:05.203Z,16.54
2022-10-20T12:44:46.083Z,16.93
2022-10-20T12:47:23.505Z,16.94
2022-10-20T12:49:59.383Z,17.08
2022-10-20T12:52:33.585Z,17.14
2022-10-20T12:55:09.716Z,17.22
2022-10-20T12:57:45.190Z,17.27
2022-10-20T13:00:45.852Z,17.38
2022-10-20T13:03:55.300Z,17.26
2022-10-20T13:06:44.488Z,17.16
2022-10-20T13:09:26.808Z,17.14
2022-10-20T13:12:27.096Z,17.19
2022-10-20T13:15:01.385Z,17.12
2022-10-20T13:17:52.347Z,17.56
2022-10-20T13:20:32.264Z,17.37
2022-10-20T13:23:03.513Z,17.19
2022-10-20T13:25:43.022Z,17.40
2022-10-20T13:28:24.462Z,17.37
2022-10-20T13:31:11.603Z,17.51
2022-10-20T13:34:04.043Z,17.43
2022-10-20T13:36:51.472Z,17.15
2022-10-20T13:39:28.727Z,17.20
2022-10-20T13:42:10.684Z,17.34
2022-10-20T13:44:54.834Z,17.26
2022-10-20T13:47:45.715Z,17.28
2022-10-20T13:50:20.177Z,17.22
2022-10-20T13:52:52.751Z,17.24
2022-10-20T13:55:26.020Z,17.04
2022-10-20T13:57:59.642Z,17.07
2022-10-20T14:00:36.185Z,17.11
2022-10-20T14:03:17.956Z,16.95
2022-10-20T14:05:48.855Z,16.82
2022-10-20T14:08:23.256Z,16.87
2022-10-20T14:10:57.256Z,17.15
2022-10-20T14:13:30.244Z,17.15
2022-10-20T14:16:07.033Z,17.10
2022-10-20T14:18:40.235Z,17.03
2022-10-20T14:21:18.894Z,16.92
2022-10-20T14:23:51.956Z,16.79
2022-10-20T14:26:26.080Z,16.81
2022-10-20T14:28:57.116Z,16.77
2022-10-20T14:31:30.711Z,16.89
2022-10-20T14:34:01.701Z,16.79
2022-10-20T14:36:33.848Z,16.55
2022-10-20T14:39:04.837Z,16.38
2022-10-20T14:41:38.260Z,16.40
2022-10-20T14:44:20.398Z,16.41
2022-10-20T14:47:07.356Z,16.46
2022-10-20T14:49:43.571Z,16.49
2022-10-20T14:52:23.980Z,16.34
2022-10-20T14:54:55.261Z,16.24
2022-10-20T14:57:47.263Z,16.28
2022-10-20T15:00:30.532Z,16.27
2022-10-20T15:03:07.136Z,16.29
2022-10-20T15:05:42.627Z,16.33
2022-10-20T15:08:28.812Z,16.34
2022-10-20T15:11:00.344Z,16.30
2022-10-20T15:13:33.243Z,16.23
2022-10-20T15:16:05.427Z,16.14
2022-10-20T15:18:39.393Z,15.88
2022-10-20T15:21:11.948Z,16.13
2022-10-20T15:23:41.784Z,15.94
2022-10-20T15:26:15.736Z,16.09
2022-10-20T15:28:48.142Z,16.28
2022-10-20T15:31:24.316Z,17.26
2022-10-20T15:33:58.107Z,16.75
2022-10-20T15:36:33.292Z,16.80
2022-10-20T15:39:04.500Z,16.61
2022-10-20T15:41:36.985Z,16.62
2022-10-20T15:44:15.287Z,16.67
2022-10-20T15:46:47.523Z,16.59
2022-10-20T15:49:19.950Z,16.63
2022-10-20T15:51:52.061Z,16.57
2022-10-20T15:54:23.976Z,16.56
2022-10-20T15:56:53.772Z,16.63
2022-10-20T15:59:24.656Z,16.35
2022-10-20T16:01:54.419Z,16.68
2022-10-20T16:04:31.392Z,16.60
2022-10-20T16:07:03.182Z,16.46
2022-10-20T16:09:34.241Z,16.29
2022-10-20T16:12:05.047Z,16.16
2022-10-20T16:14:38.074Z,16.21
2022-10-20T16:17:07.940Z,15.80
2022-10-20T16:19:41.400Z,15.66
2022-10-20T16:22:12.180Z,15.33
2022-10-20T16:24:41.928Z,15.23
2022-10-20T16:27:11.887Z,15.05
2022-10-20T16:29:44.121Z,14.94
2022-10-20T16:32:17.070Z,15.09
2022-10-20T16:34:50.506Z,15.38
2022-10-20T16:37:20.271Z,15.60
2022-10-20T16:39:51.079Z,15.99
2022-10-20T16:42:21.959Z,15.89
2022-10-20T16:44:52.792Z,15.92
2022-10-20T16:47:22.579Z,15.87
2022-10-20T16:49:55.278Z,15.86
2022-10-20T16:52:26.843Z,15.38
2022-10-20T16:54:59.535Z,15.68
2022-10-20T16:57:38.165Z,15.67
2022-10-20T17:00:10.484Z,15.58
2022-10-20T17:02:43.029Z,15.70
2022-10-20T17:05:19.705Z,15.87
2022-10-20T17:07:49.575Z,15.77
2022-10-20T17:10:21.436Z,15.83
2022-10-20T17:12:53.224Z,15.70
2022-10-20T17:15:22.995Z,15.68
2022-10-20T17:17:52.833Z,15.63
2022-10-20T17:20:25.214Z,15.92
2022-10-20T17:22:57.209Z,15.90
2022-10-20T17:25:27.051Z,15.68
2022-10-20T17:27:58.450Z,15.63
2022-10-20T17:30:29.557Z,15.48
2022-10-20T17:32:59.503Z,15.44
2022-10-20T17:35:34.119Z,15.47
2022-10-20T17:38:04.750Z,15.25
2022-10-20T17:40:39.153Z,15.44
2022-10-20T17:43:08.949Z,15.39
2022-10-20T17:45:40.172Z,15.15
2022-10-20T17:48:10.625Z,15.10
2022-10-20T17:50:44.124Z,15.20
2022-10-20T17:53:13.957Z,15.15
2022-10-20T17:55:44.811Z,14.99
2022-10-20T17:58:14.663Z,14.86
2022-10-20T18:00:55.912Z,15.00
2022-10-20T18:03:27.210Z,15.10
2022-10-20T18:06:00.596Z,15.13
2022-10-20T18:08:31.397Z,14.93
2022-10-20T18:11:02.203Z,14.91
2022-10-20T18:13:32.928Z,15.03
2022-10-20T18:16:07.199Z,15.33
2022-10-20T18:18:37.120Z,15.16
2022-10-20T18:21:13.002Z,15.23
2022-10-20T18:23:46.616Z,15.28
2022-10-20T18:26:20.704Z,15.38
2022-10-20T18:28:51.401Z,15.39
2022-10-20T18:31:23.315Z,15.38
2022-10-20T18:33:56.376Z,15.37
2022-10-20T18:36:31.091Z,15.51
2022-10-20T18:39:02.027Z,15.46
2022-10-20T18:41:37.327Z,15.35
2022-10-20T18:44:10.727Z,15.42
2022-10-20T18:46:40.850Z,15.46
2022-10-20T18:49:14.185Z,15.16
2022-10-20T18:51:48.565Z,15.47
2022-10-20T18:54:23.296Z,15.43
2022-10-20T18:56:53.099Z,15.40
2022-10-20T18:59:23.066Z,15.14
2022-10-20T19:01:52.970Z,15.40
2022-10-20T19:04:22.804Z,15.32
2022-10-20T19:06:56.474Z,15.34
2022-10-20T19:09:26.392Z,15.28
2022-10-20T19:11:57.184Z,15.20
2022-10-20T19:14:26.936Z,15.26
2022-10-20T19:16:56.753Z,15.15
2022-10-20T19:19:26.543Z,15.09
2022-10-20T19:21:58.906Z,14.96
2022-10-20T19:24:29.624Z,14.93
2022-10-20T19:27:25.060Z,14.73
2022-10-20T19:29:51.903Z,14.88
2022-10-20T19:32:21.750Z,14.84
2022-10-20T19:34:52.636Z,14.88
2022-10-20T19:37:26.061Z,14.94
2022-10-20T19:39:55.892Z,15.02
2022-10-20T19:42:25.743Z,14.94
2022-10-20T19:44:55.714Z,14.98
2022-10-20T19:47:25.543Z,14.80
2022-10-20T19:49:56.358Z,14.74
2022-10-20T19:52:29.709Z,14.50
2022-10-20T19:55:01.270Z,14.64
2022-10-20T19:57:31.049Z,14.41
2022-10-20T20:00:01.856Z,14.64
2022-10-20T20:02:35.312Z,14.70
2022-10-20T20:05:05.423Z,14.73
2022-10-20T20:07:38.096Z,14.52
2022-10-20T20:10:10.238Z,14.58
2022-10-20T20:12:40.020Z,14.42
2022-10-20T20:15:10.156Z,14.20
2022-10-20T20:17:40.242Z,14.13
2022-10-20T20:20:10.465Z,14.01
2022-10-20T20:22:42.876Z,14.02
2022-10-20T20:25:12.877Z,14.09
2022-10-20T20:27:42.975Z,13.95
2022-10-20T20:30:13.567Z,14.08
2022-10-20T20:32:46.909Z,14.12
2022-10-20T20:35:20.586Z,13.92
2022-10-20T20:37:53.971Z,14.23
2022-10-20T20:40:24.004Z,14.23
2022-10-20T20:42:56.043Z,14.23
2022-10-20T20:45:26.838Z,14.31
2022-10-20T20:47:56.643Z,14.25
2022-10-20T20:50:26.499Z,14.25
2022-10-20T20:52:58.855Z,14.29
2022-10-20T20:55:28.752Z,14.26
2022-10-20T20:57:58.984Z,14.26
2022-10-20T21:00:28.824Z,14.25
2022-10-20T21:02:58.599Z,14.14
2022-10-20T21:05:30.234Z,14.32
2022-10-20T21:08:02.732Z,14.47
2022-10-20T21:10:33.655Z,14.43
2022-10-20T21:13:03.519Z,14.56
2022-10-20T21:15:33.327Z,14.48
2022-10-20T21:18:03.069Z,14.32
2022-10-20T21:20:32.904Z,14.12
2022-10-20T21:23:05.292Z,14.08
2022-10-20T21:25:35.053Z,14.11
2022-10-20T21:28:04.765Z,14.11
2022-10-20T21:30:34.929Z,14.01
2022-10-20T21:33:04.676Z,14.03
2022-10-20T21:35:34.391Z,13.96
2022-10-20T21:38:06.781Z,13.79
2022-10-20T21:40:36.500Z,13.97
2022-10-20T21:43:08.896Z,14.03
2022-10-20T21:45:38.732Z,13.87
2022-10-20T21:48:08.940Z,14.03
2022-10-20T21:50:39.105Z,13.95
2022-10-20T21:53:11.499Z,14.00
2022-10-20T21:55:41.307Z,14.09
2022-10-20T21:58:11.068Z,14.09
2022-10-20T22:00:40.871Z,14.04
2022-10-20T22:03:10.644Z,14.20
2022-10-20T22:05:40.429Z,14.27
2022-10-20T22:08:12.846Z,14.35
2022-10-20T22:10:42.691Z,14.42
2022-10-20T22:13:12.479Z,14.51
2022-10-20T22:15:42.930Z,14.55
2022-10-20T22:18:12.709Z,14.38
2022-10-20T22:20:42.532Z,14.70
2022-10-20T22:23:15.164Z,14.61
2022-10-20T22:25:44.932Z,14.50
2022-10-20T22:28:14.674Z,14.60
2022-10-20T22:30:44.481Z,14.70
2022-10-20T22:33:14.231Z,14.69
2022-10-20T22:35:43.950Z,14.77
2022-10-20T22:38:16.536Z,14.54
2022-10-20T22:40:46.289Z,14.62
2022-10-20T22:43:16.107Z,14.75
2022-10-20T22:45:45.834Z,14.80
2022-10-20T22:48:15.617Z,14.74
2022-10-20T22:50:45.358Z,14.76
2022-10-20T22:53:17.654Z,14.84
2022-10-20T22:55:47.646Z,14.77
2022-10-20T22:58:17.425Z,14.86
2022-10-20T23:00:47.222Z,14.81
2022-10-20T23:03:17.052Z,14.73
2022-10-20T23:05:46.875Z,14.83
2022-10-20T23:08:19.200Z,14.86
2022-10-20T23:10:57.923Z,14.79
2022-10-20T23:13:27.844Z,14.87
2022-10-20T23:15:57.577Z,14.63
2022-10-20T23:18:27.280Z,14.66
2022-10-20T23:20:58.244Z,14.72
2022-10-20T23:23:31.228Z,14.78
2022-10-20T23:26:03.798Z,14.66
2022-10-20T23:28:34.729Z,14.63
2022-10-20T23:31:12.052Z,14.41
2022-10-20T23:33:43.257Z,14.63
2022-10-20T23:36:14.398Z,14.38
2022-10-20T23:38:47.651Z,14.36
2022-10-20T23:41:17.772Z,14.34
2022-10-20T23:43:47.528Z,14.24
2022-10-20T23:46:17.270Z,14.59
2022-10-20T23:48:46.999Z,14.62
2022-10-20T23:51:16.736Z,14.66
2022-10-20T23:53:49.094Z,14.51
2022-10-20T23:56:18.828Z,14.60
2022-10-20T23:58:48.559Z,14.38
